Time;durP1;ratioP1;P1;durP2;ratioP2;P2;SDS_P1;SDS_P2;PMS_P1;PMS_P2;Temp;Humidity;BMP_temperature;BMP_pressure;BME280_temperature;BME280_humidity;BME280_pressure;Samples;Min_cycle;Max_cycle;Signal;HPM_P1;HPM_P2
2022/12/06 06:05:52;;;;;;;6.93;3.15;;;;;;;4.94;100.00;101943.28;5017181;28;20768;-75
2022/12/06 06:08:18;;;;;;;4.50;2.97;;;;;;;4.99;100.00;101943.16;5022650;28;20072;-75
2022/12/06 06:10:44;;;;;;;10.00;3.88;;;;;;;5.08;100.00;101934.88;5020647;28;20463;-75
2022/12/06 06:13:09;;;;;;;7.38;3.28;;;;;;;4.88;100.00;101938.97;5035426;22;20127;-75
2022/12/06 06:15:35;;;;;;;7.57;3.45;;;;;;;4.72;100.00;101949.59;4994078;28;20034;-75
2022/12/06 06:18:00;;;;;;;6.38;3.72;;;;;;;4.79;100.00;101941.69;4991989;28;20455;-75
2022/12/06 06:20:26;;;;;;;7.15;3.70;;;;;;;4.65;100.00;101941.72;4993547;28;20038;-75
2022/12/06 06:22:53;;;;;;;9.57;3.35;;;;;;;4.78;100.00;101942.81;4990316;28;20124;-74
2022/12/06 06:25:18;;;;;;;7.93;3.55;;;;;;;4.64;100.00;101953.94;4988826;28;20030;-75
2022/12/06 06:27:44;;;;;;;8.50;3.53;;;;;;;4.88;100.00;101952.84;4988901;28;20037;-75
2022/12/06 06:30:10;;;;;;;8.90;4.13;;;;;;;4.69;100.00;101947.47;4991423;28;20539;-74
2022/12/06 06:32:36;;;;;;;8.82;4.15;;;;;;;4.61;100.00;101957.31;4992589;28;20037;-74
2022/12/06 06:35:02;;;;;;;11.98;3.95;;;;;;;4.52;100.00;101953.66;4979475;28;20451;-74
2022/12/06 06:37:28;;;;;;;8.98;4.30;;;;;;;4.75;100.00;101950.94;4982569;28;20193;-75
2022/12/06 06:39:53;;;;;;;7.13;3.78;;;;;;;4.64;100.00;101951.16;4988082;28;20459;-74
2022/12/06 06:42:18;;;;;;;10.23;4.00;;;;;;;4.77;100.00;101962.56;4996388;28;20031;-74
2022/12/06 06:44:44;;;;;;;8.55;3.63;;;;;;;4.83;100.00;101948.25;4992902;28;20087;-74
2022/12/06 06:47:09;;;;;;;5.78;3.25;;;;;;;4.74;100.00;101952.06;4990028;28;20159;-74
2022/12/06 06:49:35;;;;;;;6.47;3.28;;;;;;;4.68;100.00;101960.50;4981397;28;20026;-74
2022/12/06 06:52:00;;;;;;;9.85;3.50;;;;;;;4.93;100.00;101960.22;4990074;28;20484;-75
2022/12/06 06:54:26;;;;;;;8.40;3.40;;;;;;;4.76;100.00;101961.72;4988011;28;20526;-74
2022/12/06 06:56:55;;;;;;;7.85;3.40;;;;;;;4.91;100.00;101962.50;4988916;28;20154;-74
2022/12/06 06:59:20;;;;;;;6.28;3.47;;;;;;;4.87;100.00;101959.56;4987433;28;20465;-75
2022/12/06 07:01:46;;;;;;;7.00;3.58;;;;;;;4.91;100.00;101959.72;4980062;28;20037;-75
2022/12/06 07:04:11;;;;;;;6.70;3.17;;;;;;;4.96;100.00;101960.44;4983023;28;20064;-75
2022/12/06 07:06:36;;;;;;;7.80;3.45;;;;;;;5.01;100.00;101954.75;4987249;28;20032;-76
2022/12/06 07:09:02;;;;;;;8.32;3.45;;;;;;;5.06;100.00;101954.66;4988566;28;20034;-75
2022/12/06 07:11:27;;;;;;;6.28;4.25;;;;;;;5.42;100.00;101955.72;4992020;28;20045;-74
2022/12/06 07:13:52;;;;;;;6.88;3.40;;;;;;;5.49;100.00;101951.34;4986001;28;21549;-74
2022/12/06 07:16:18;;;;;;;6.15;3.17;;;;;;;5.32;100.00;101948.47;4987648;28;20030;-75
2022/12/06 07:18:44;;;;;;;9.48;4.57;;;;;;;5.25;100.00;101939.78;4989494;28;20029;-74
2022/12/06 07:21:12;;;;;;;8.15;3.65;;;;;;;5.25;100.00;101945.31;4993372;28;20604;-74
2022/12/06 07:23:40;;;;;;;6.95;3.83;;;;;;;5.23;100.00;101931.75;4995267;28;21055;-74
2022/12/06 07:26:18;;;;;;;8.55;3.83;;;;;;;5.22;100.00;101935.66;4996648;28;20482;-74
2022/12/06 07:28:45;;;;;;;4.80;3.22;;;;;;;5.19;100.00;101930.75;4988252;28;20057;-74
2022/12/06 07:31:18;;;;;;;7.68;3.85;;;;;;;5.19;100.00;101941.03;4986828;28;20444;-74
2022/12/06 07:33:44;;;;;;;9.40;3.88;;;;;;;5.14;100.00;101946.69;4996217;28;20045;-73
2022/12/06 07:36:11;;;;;;;6.30;3.25;;;;;;;5.13;100.00;101936.75;4994140;28;21754;-74
2022/12/06 07:38:37;;;;;;;5.93;3.28;;;;;;;5.30;100.00;101934.09;4985828;28;20061;-73
2022/12/06 07:44:59;;;;;;;4.82;3.20;;;;;;;5.19;100.00;101935.47;4995912;28;20757;-73
2022/12/06 07:46:37;;;;;;;7.75;4.00;;;;;;;4.98;100.00;101935.97;4989734;28;22482;-73
2022/12/06 07:49:03;;;;;;;7.45;3.35;;;;;;;4.94;100.00;101934.97;4994014;28;20922;-73
2022/12/06 07:51:28;;;;;;;5.75;3.20;;;;;;;4.93;100.00;101938.84;4997620;28;20037;-73
2022/12/06 07:53:54;;;;;;;7.30;3.70;;;;;;;4.93;100.00;101946.38;4997380;28;20033;-73
2022/12/06 07:56:19;;;;;;;4.88;3.10;;;;;;;4.89;100.00;101937.84;4998794;28;20491;-72
2022/12/06 07:58:44;;;;;;;7.35;3.80;;;;;;;4.88;100.00;101931.47;4994425;28;20069;-73
2022/12/06 08:01:10;;;;;;;6.90;4.28;;;;;;;4.82;100.00;101940.22;4993414;28;20038;-73
2022/12/06 08:03:35;;;;;;;6.47;4.78;;;;;;;4.77;100.00;101937.59;4996435;28;20034;-73
2022/12/06 08:06:00;;;;;;;7.93;4.68;;;;;;;4.77;100.00;101934.81;4996637;28;20716;-73
2022/12/06 08:08:26;;;;;;;8.40;5.68;;;;;;;4.74;100.00;101932.66;4998295;28;20045;-73
2022/12/06 08:10:51;;;;;;;10.20;5.88;;;;;;;4.75;100.00;101939.84;4996364;28;20055;-73
2022/12/06 08:13:16;;;;;;;6.38;4.95;;;;;;;4.67;100.00;101942.22;4991574;28;20065;-73
2022/12/06 08:15:42;;;;;;;9.68;6.30;;;;;;;4.65;100.00;101940.88;4993618;28;20449;-72
2022/12/06 08:18:07;;;;;;;8.73;4.90;;;;;;;4.65;100.00;101933.38;4994721;28;20026;-73
2022/12/06 08:20:32;;;;;;;7.32;3.60;;;;;;;4.64;100.00;101931.75;4981088;28;20038;-73
2022/12/06 08:22:58;;;;;;;8.75;4.60;;;;;;;4.61;100.00;101932.38;4995876;28;20378;-72
2022/12/06 08:25:23;;;;;;;10.52;4.03;;;;;;;4.57;100.00;101931.34;4999584;28;20038;-72
2022/12/06 08:27:48;;;;;;;9.02;3.95;;;;;;;4.64;100.00;101937.31;4996595;28;20463;-72
2022/12/06 08:30:14;;;;;;;7.25;3.58;;;;;;;4.65;100.00;101944.47;4996902;28;20432;-72
2022/12/06 08:32:39;;;;;;;6.80;3.80;;;;;;;4.64;100.00;101944.81;4989824;28;20042;-73
2022/12/06 08:35:05;;;;;;;10.05;5.10;;;;;;;4.64;100.00;101953.13;4994184;28;20034;-72
2022/12/06 08:37:33;;;;;;;7.65;3.97;;;;;;;4.63;100.00;101943.97;4997334;28;20042;-72
2022/12/06 08:39:58;;;;;;;8.63;3.65;;;;;;;4.63;100.00;101946.75;4994006;28;20473;-73
2022/12/06 08:42:23;;;;;;;6.28;3.22;;;;;;;4.60;100.00;101952.94;4995210;28;20037;-73
2022/12/06 08:44:50;;;;;;;8.32;3.90;;;;;;;4.47;100.00;101946.28;5003194;28;20041;-73
2022/12/06 08:47:16;;;;;;;7.10;3.08;;;;;;;4.58;100.00;101944.09;4995619;28;20029;-73
2022/12/06 08:49:41;;;;;;;9.70;4.60;;;;;;;4.55;100.00;101949.44;5001036;28;20087;-74
2022/12/06 08:52:06;;;;;;;7.90;4.07;;;;;;;4.58;100.00;101944.09;4999037;28;20026;-73
2022/12/06 08:54:34;;;;;;;9.27;3.70;;;;;;;4.59;100.00;101940.16;4996742;28;20028;-73
2022/12/06 08:56:59;;;;;;;4.50;3.08;;;;;;;4.63;100.00;101949.50;4997785;28;20230;-73
2022/12/06 08:59:24;;;;;;;7.13;3.33;;;;;;;4.58;100.00;101944.09;4994153;28;20465;-72
2022/12/06 09:01:50;;;;;;;7.10;3.15;;;;;;;4.65;100.00;101944.47;4993443;28;20433;-73
2022/12/06 09:04:15;;;;;;;6.82;2.90;;;;;;;4.65;100.00;101944.47;4994132;28;20465;-72
2022/12/06 09:06:43;;;;;;;4.80;3.13;;;;;;;4.65;100.00;101941.72;5003768;28;20061;-73
2022/12/06 09:09:10;;;;;;;12.93;3.40;;;;;;;4.66;100.00;101948.91;4998638;28;20061;-73
2022/12/06 09:11:38;;;;;;;5.45;3.10;;;;;;;4.66;100.00;101945.31;4994394;28;20097;-72
2022/12/06 09:14:04;;;;;;;4.90;2.90;;;;;;;4.67;100.00;101946.94;4998680;28;20038;-72
2022/12/06 09:16:30;;;;;;;4.18;3.00;;;;;;;4.66;100.00;101951.69;5000919;28;20466;-73
2022/12/06 09:18:56;;;;;;;6.22;3.80;;;;;;;4.66;100.00;101953.66;4997964;28;20043;-73
2022/12/06 09:21:24;;;;;;;5.60;2.88;;;;;;;4.64;100.00;101953.94;4999186;28;20061;-73
2022/12/06 09:23:54;;;;;;;7.00;3.97;;;;;;;4.60;100.00;101949.34;4994588;28;20029;-72
2022/12/06 09:26:20;;;;;;;4.35;3.28;;;;;;;4.65;100.00;101950.03;4999409;28;20515;-73
2022/12/06 09:28:50;;;;;;;7.25;3.25;;;;;;;4.68;100.00;101943.06;4995961;28;20052;-73
2022/12/06 09:31:16;;;;;;;8.30;3.03;;;;;;;4.62;100.00;101945.13;5003952;28;20030;-72
2022/12/06 09:33:41;;;;;;;10.25;3.80;;;;;;;4.37;100.00;101948.44;4996127;28;20038;-73
2022/12/06 09:36:17;;;;;;;9.63;4.15;;;;;;;4.60;100.00;101952.09;4998496;28;20018;-73
2022/12/06 09:38:44;;;;;;;9.38;4.05;;;;;;;4.65;100.00;101947.25;4999435;28;20330;-74
2022/12/06 09:41:31;;;;;;;14.65;4.22;;;;;;;4.62;100.00;101950.66;5002380;28;20037;-73
2022/12/06 09:44:16;;;;;;;9.57;4.82;;;;;;;4.56;100.00;101949.13;4996236;28;20510;-73
2022/12/06 09:47:27;;;;;;;6.70;3.67;;;;;;;4.72;100.00;101943.22;5000711;28;20112;-74
2022/12/06 09:50:26;;;;;;;7.18;3.90;;;;;;;4.74;100.00;101949.28;4996092;28;20382;-72
2022/12/06 09:53:25;;;;;;;9.95;3.90;;;;;;;4.85;100.00;101948.75;4998761;28;20061;-73
2022/12/06 09:55:59;;;;;;;13.80;4.78;;;;;;;4.73;100.00;101948.47;4993734;28;20033;-73
2022/12/06 09:58:39;;;;;;;9.77;5.32;;;;;;;4.76;100.00;101955.34;4998253;28;20660;-73
2022/12/06 10:01:19;;;;;;;9.65;4.10;;;;;;;4.88;100.00;101950.06;4994236;28;20034;-73
2022/12/06 10:03:56;;;;;;;7.55;4.03;;;;;;;4.96;100.00;101937.44;4993811;28;20558;-73
2022/12/06 10:06:29;;;;;;;7.82;3.50;;;;;;;5.03;100.00;101948.91;4996858;28;20095;-73
2022/12/06 10:09:12;;;;;;;;;;;;;;;4.94;100.00;101940.50;4995399;28;20033;-72
2022/12/06 10:11:58;;;;;;;;;;;;;;;5.02;100.00;101948.09;4999073;28;19917;-72
2022/12/06 10:15:07;;;;;;;5.90;4.13;;;;;;;5.02;100.00;101948.09;4987649;28;20296;-73
2022/12/06 10:18:14;;;;;;;8.55;3.00;;;;;;;5.04;100.00;101945.81;4970651;28;20046;-73
2022/12/06 10:20:57;;;;;;;7.55;2.92;;;;;;;5.08;100.00;101944.06;4996978;28;20042;-72
2022/12/06 10:24:00;;;;;;;8.27;3.08;;;;;;;5.16;100.00;101941.66;4995441;28;21730;-73
2022/12/06 10:26:47;;;;;;;4.47;2.50;;;;;;;4.93;100.00;101944.41;4993334;28;21415;-73
2022/12/06 10:29:30;;;;;;;6.88;3.03;;;;;;;5.26;100.00;101939.44;4996423;28;20081;-74
2022/12/06 10:32:03;;;;;;;9.52;4.25;;;;;;;4.97;100.00;101939.06;4994700;28;20543;-73
2022/12/06 10:34:41;;;;;;;10.55;3.70;;;;;;;4.88;100.00;101937.03;4995992;28;20034;-73
2022/12/06 10:37:33;;;;;;;7.40;2.83;;;;;;;4.95;100.00;101933.00;5000516;28;20038;-72
2022/12/06 10:40:22;;;;;;;9.45;3.40;;;;;;;4.88;100.00;101927.88;4993251;28;20030;-73
2022/12/06 10:43:03;;;;;;;9.07;3.42;;;;;;;4.95;100.00;101924.66;4995324;28;20376;-73
2022/12/06 10:48:57;;;;;;;7.70;3.65;;;;;;;4.85;100.00;101918.25;5003164;28;20441;-74
2022/12/06 10:51:33;;;;;;;10.65;3.63;;;;;;;4.85;100.00;101925.75;5001093;28;20091;-74
2022/12/06 10:54:09;;;;;;;10.45;3.63;;;;;;;4.96;100.00;101916.03;4997011;28;20505;-73
2022/12/06 10:56:39;;;;;;;9.73;3.50;;;;;;;4.91;100.00;101913.38;5000508;28;20068;-74
2022/12/06 10:59:26;;;;;;;7.45;3.45;;;;;;;4.93;100.00;101901.97;4995179;28;20544;-74
2022/12/06 11:01:55;;;;;;;8.63;4.07;;;;;;;5.03;100.00;101898.94;4999808;28;20030;-73
2022/12/06 11:04:34;;;;;;;5.95;3.42;;;;;;;4.98;100.00;101899.91;4992187;28;20337;-75
2022/12/06 11:07:22;;;;;;;7.30;3.25;;;;;;;5.18;100.00;101889.41;4994008;28;20038;-76
2022/12/06 11:09:50;;;;;;;7.68;3.55;;;;;;;5.08;100.00;101899.66;4996099;28;20033;-75
2022/12/06 11:12:24;;;;;;;6.55;3.22;;;;;;;5.07;100.00;101899.97;4989829;28;20062;-75
2022/12/06 11:15:00;;;;;;;6.75;3.42;;;;;;;5.22;100.00;101890.44;4992651;28;20057;-74
2022/12/06 11:17:31;;;;;;;9.80;3.53;;;;;;;5.19;100.00;101896.63;4996532;28;20021;-74
2022/12/06 11:20:20;;;;;;;8.75;3.47;;;;;;;5.13;100.00;101890.38;4992052;28;20044;-74
2022/12/06 11:23:07;;;;;;;12.55;4.63;;;;;;;5.41;100.00;101881.88;4997209;28;20034;-74
2022/12/06 11:25:40;;;;;;;9.95;3.42;;;;;;;5.47;100.00;101891.72;4987679;28;20026;-75
2022/12/06 11:28:27;;;;;;;9.73;3.72;;;;;;;5.20;100.00;101881.59;4989516;28;20796;-75
2022/12/06 11:30:55;;;;;;;9.60;5.70;;;;;;;5.36;100.00;101884.81;4997256;28;20049;-75
2022/12/06 11:33:27;;;;;;;11.13;4.13;;;;;;;5.37;100.00;101876.13;4991550;28;20084;-75
2022/12/06 11:35:53;;;;;;;7.68;3.78;;;;;;;5.38;100.00;101877.78;4997407;28;20382;-75
2022/12/06 11:38:18;;;;;;;10.80;4.72;;;;;;;5.54;100.00;101874.59;5001866;28;20064;-74
2022/12/06 11:40:46;;;;;;;13.02;4.18;;;;;;;5.40;100.00;101878.28;5006422;28;20744;-74
2022/12/06 11:43:26;;;;;;;9.48;4.07;;;;;;;5.49;100.00;101867.22;4998719;28;20037;-74
2022/12/06 11:45:54;;;;;;;8.63;3.80;;;;;;;5.57;100.00;101874.78;4994639;28;20037;-74
2022/12/06 11:48:23;;;;;;;8.60;3.78;;;;;;;5.60;100.00;101868.59;4993017;28;20128;-75
2022/12/06 11:50:50;;;;;;;9.85;4.38;;;;;;;5.54;100.00;101869.03;4995001;28;20362;-75
2022/12/06 11:53:55;;;;;;;7.28;4.43;;;;;;;5.57;100.00;101871.19;4998377;28;20535;-76
2022/12/06 11:56:37;;;;;;;9.20;3.83;;;;;;;5.59;100.00;101866.97;4986197;28;20038;-76
2022/12/06 11:59:27;;;;;;;12.57;3.85;;;;;;;5.72;100.00;101858.84;4994748;28;20046;-75
2022/12/06 12:01:55;;;;;;;10.57;4.43;;;;;;;5.75;100.00;101867.34;4990141;28;20065;-75
2022/12/06 12:04:35;;;;;;;8.98;3.65;;;;;;;5.70;100.00;101868.31;4988416;28;20042;-75
2022/12/06 12:07:01;;;;;;;13.10;3.53;;;;;;;5.70;100.00;101867.50;4992717;28;20069;-77
2022/12/06 12:09:31;;;;;;;4.95;3.28;;;;;;;5.75;100.00;101864.56;4995455;28;20049;-75
2022/12/06 12:12:03;;;;;;;7.80;3.47;;;;;;;5.73;100.00;101854.91;4986691;28;20482;-75
2022/12/06 12:14:37;;;;;;;6.65;3.17;;;;;;;5.75;100.00;101852.63;4993630;28;20050;-75
2022/12/06 12:17:03;;;;;;;20.88;5.10;;;;;;;5.81;100.00;101846.59;5009583;28;20029;-75
2022/12/06 12:19:39;;;;;;;9.50;3.65;;;;;;;5.73;100.00;101843.81;4998495;28;20022;-74
2022/12/06 12:22:26;;;;;;;9.75;3.78;;;;;;;5.70;100.00;101846.09;4998212;28;20440;-74
2022/12/06 12:24:55;;;;;;;10.60;4.15;;;;;;;5.75;100.00;101845.09;4999835;28;20037;-74
2022/12/06 12:27:38;;;;;;;9.52;4.80;;;;;;;5.83;100.00;101847.09;5002165;28;20036;-74
2022/12/06 12:30:22;;;;;;;9.10;3.53;;;;;;;5.94;100.00;101830.13;4993439;28;20440;-76
2022/12/06 12:32:51;;;;;;;6.95;3.90;;;;;;;5.94;100.00;101835.69;4988737;28;20064;-74
2022/12/06 12:35:19;;;;;;;5.82;3.50;;;;;;;5.99;100.00;101830.03;4997075;28;20421;-75
2022/12/06 12:37:45;;;;;;;9.70;3.90;;;;;;;5.98;100.00;101828.38;4989044;28;20049;-73
2022/12/06 12:40:33;;;;;;;7.30;3.20;;;;;;;6.03;100.00;101834.63;4996000;28;20543;-74
2022/12/06 12:43:04;;;;;;;8.63;3.92;;;;;;;6.11;100.00;101835.75;4993775;28;20762;-75
2022/12/06 12:45:30;;;;;;;8.10;3.20;;;;;;;6.19;100.00;101823.03;4995869;28;20038;-74
2022/12/06 12:47:57;;;;;;;7.18;3.55;;;;;;;6.22;100.00;101831.53;5008963;28;20041;-75
2022/12/06 12:50:23;;;;;;;8.13;4.25;;;;;;;6.02;100.00;101832.16;4996456;28;20493;-75
2022/12/06 12:52:50;;;;;;;8.90;3.47;;;;;;;5.99;100.00;101822.50;4995170;28;20037;-75
2022/12/06 12:55:21;;;;;;;14.05;5.60;;;;;;;6.01;100.00;101823.00;4991008;28;20029;-75
2022/12/06 12:57:52;;;;;;;8.35;3.60;;;;;;;5.99;100.00;101833.63;5013038;28;20053;-74
2022/12/06 13:00:31;;;;;;;8.68;3.95;;;;;;;6.07;100.00;101821.72;5000031;28;20052;-74
2022/12/06 13:03:00;;;;;;;16.75;6.00;;;;;;;6.01;100.00;101820.22;4997324;28;20045;-75
2022/12/06 13:05:31;;;;;;;6.20;4.03;;;;;;;5.92;100.00;101819.34;4992675;28;20624;-75
2022/12/06 13:08:15;;;;;;;8.35;3.78;;;;;;;5.99;100.00;101813.38;4997834;28;20080;-74
2022/12/06 13:10:43;;;;;;;10.40;3.38;;;;;;;5.90;100.00;101808.56;4991582;28;20040;-73
2022/12/06 13:13:19;;;;;;;6.13;3.95;;;;;;;5.96;100.00;101816.78;4994024;28;20057;-74
2022/12/06 13:15:56;;;;;;;9.18;4.13;;;;;;;5.98;100.00;101806.16;4992945;28;20029;-74
2022/12/06 13:18:37;;;;;;;9.30;4.00;;;;;;;6.08;100.00;101808.63;5000111;28;20038;-74
2022/12/06 13:21:30;;;;;;;11.32;3.63;;;;;;;6.08;100.00;101803.88;4996194;28;20146;-73
2022/12/06 13:24:06;;;;;;;13.10;3.22;;;;;;;5.99;100.00;101802.25;4996346;28;20509;-73
2022/12/06 13:26:37;;;;;;;5.25;3.20;;;;;;;5.96;100.00;101794.53;4993734;28;20049;-72
2022/12/06 13:29:18;;;;;;;5.93;3.53;;;;;;;6.04;100.00;101790.97;4996675;28;20669;-73
2022/12/06 13:31:46;;;;;;;9.38;4.20;;;;;;;6.00;100.00;101793.56;4995574;28;20053;-74
2022/12/06 13:34:24;;;;;;;5.72;3.42;;;;;;;6.14;100.00;101798.19;4992836;28;20377;-74
2022/12/06 13:36:51;;;;;;;7.57;3.42;;;;;;;5.99;100.00;101802.25;4997686;28;20408;-74
2022/12/06 13:39:25;;;;;;;9.23;3.33;;;;;;;6.03;100.00;101794.88;4992873;28;20389;-74
2022/12/06 13:44:51;;;;;;;7.07;3.72;;;;;;;5.99;100.00;101777.22;4995309;28;20064;-73
2022/12/06 13:47:37;;;;;;;6.53;3.38;;;;;;;5.99;100.00;101786.38;4995253;28;20576;-73
2022/12/06 13:50:22;;;;;;;8.30;4.57;;;;;;;6.04;100.00;101782.63;4998029;28;20418;-73
2022/12/06 13:52:48;;;;;;;8.82;4.60;;;;;;;6.20;100.00;101783.78;4991412;28;20508;-73
2022/12/06 13:55:25;;;;;;;6.32;2.92;;;;;;;6.18;100.00;101780.53;5000604;28;20022;-73
2022/12/06 13:57:54;;;;;;;6.30;2.67;;;;;;;6.10;100.00;101782.13;4996136;28;20096;-74
2022/12/06 14:00:28;;;;;;;5.03;3.33;;;;;;;6.15;100.00;101788.69;4999575;28;20034;-73
2022/12/06 14:02:57;;;;;;;4.65;2.10;;;;;;;6.20;100.00;101791.28;4995004;28;20034;-73
2022/12/06 14:05:57;;;;;;;5.47;2.85;;;;;;;6.28;100.00;101782.97;4996533;28;20252;-73
2022/12/06 14:08:35;;;;;;;5.28;1.98;;;;;;;6.25;100.00;101785.59;5006043;28;20076;-73
2022/12/06 14:11:22;;;;;;;6.57;2.30;;;;;;;6.22;100.00;101784.28;4997271;28;20473;-73
2022/12/06 14:13:59;;;;;;;4.50;2.30;;;;;;;6.35;100.00;101779.72;5001917;28;20053;-73
2022/12/06 14:16:37;;;;;;;10.70;3.08;;;;;;;6.33;100.00;101773.66;5002781;28;20033;-74
2022/12/06 14:19:31;;;;;;;5.22;2.03;;;;;;;6.98;100.00;101777.34;4993951;28;20456;-75
2022/12/06 14:22:01;;;;;;;4.50;3.33;;;;;;;6.71;100.00;101773.78;4998642;28;20034;-75
2022/12/06 14:24:34;;;;;;;4.25;2.28;;;;;;;6.58;100.00;101780.34;5007032;28;20128;-74
2022/12/06 14:27:20;;;;;;;3.97;2.00;;;;;;;6.32;100.00;101774.78;4994543;28;20748;-75
2022/12/06 14:30:12;;;;;;;8.98;2.42;;;;;;;6.42;100.00;101776.44;4993151;28;20947;-75
2022/12/06 14:32:47;;;;;;;4.45;2.17;;;;;;;6.40;100.00;101773.16;4998313;28;20030;-76
2022/12/06 14:35:17;;;;;;;7.43;3.15;;;;;;;6.36;100.00;101777.75;4991815;28;20033;-76
2022/12/06 14:37:52;;;;;;;14.45;2.30;;;;;;;6.41;100.00;101772.00;4996737;28;20500;-75
2022/12/06 14:43:22;;;;;;;3.90;2.35;;;;;;;6.59;100.00;101758.91;4990164;28;20080;-75
2022/12/06 14:45:48;;;;;;;6.85;2.70;;;;;;;6.48;100.00;101758.44;4988714;28;20018;-75
2022/12/06 14:48:14;;;;;;;6.80;2.28;;;;;;;6.38;100.00;101758.75;4995405;28;20029;-74
2022/12/06 14:50:49;;;;;;;5.10;1.88;;;;;;;6.52;100.00;101753.84;4987558;28;20034;-75
2022/12/06 14:53:29;;;;;;;7.13;2.03;;;;;;;6.40;100.00;101751.72;4987847;28;20048;-74
2022/12/06 14:56:03;;;;;;;3.13;1.90;;;;;;;6.47;100.00;101757.63;4992325;28;20046;-76
2022/12/06 14:58:34;;;;;;;5.03;2.13;;;;;;;6.69;100.00;101764.13;4986620;28;20033;-75
2022/12/06 15:01:05;;;;;;;5.15;2.15;;;;;;;6.47;100.00;101756.78;4992722;28;20334;-76
2022/12/06 15:03:32;;;;;;;4.68;2.10;;;;;;;6.48;100.00;101752.88;4987625;28;20030;-75
2022/12/06 15:06:21;;;;;;;4.47;2.67;;;;;;;6.22;100.00;101755.63;4990711;28;20033;-76
2022/12/06 15:09:09;;;;;;;5.75;3.08;;;;;;;6.15;100.00;101750.56;4987586;28;20060;-74
2022/12/06 15:14:24;;;;;;;4.32;2.97;;;;;;;6.00;100.00;101749.09;4996154;28;20112;-74
2022/12/06 15:16:59;;;;;;;8.63;2.88;;;;;;;5.97;100.00;101751.72;4997277;28;20036;-75
2022/12/06 15:19:24;;;;;;;6.45;3.17;;;;;;;6.01;100.00;101745.19;4994345;28;20852;-75
2022/12/06 15:21:53;;;;;;;7.20;3.10;;;;;;;6.00;100.00;101739.94;4990665;28;20033;-74
2022/12/06 15:24:24;;;;;;;9.40;2.30;;;;;;;5.95;100.00;101751.22;4995733;28;20105;-76
2022/12/06 15:26:50;;;;;;;6.82;2.50;;;;;;;5.88;100.00;101741.38;4995301;28;20045;-74
2022/12/06 15:29:15;;;;;;;4.22;2.33;;;;;;;5.95;100.00;101735.38;4992577;28;20069;-75
2022/12/06 15:31:51;;;;;;;5.40;2.55;;;;;;;5.96;100.00;101736.19;4993136;28;20125;-74
2022/12/06 15:34:16;;;;;;;7.60;2.95;;;;;;;5.77;100.00;101737.25;4991824;28;20041;-75
2022/12/06 15:36:42;;;;;;;3.63;2.40;;;;;;;6.30;100.00;101729.81;4986192;28;20021;-75
2022/12/06 15:39:07;;;;;;;6.43;3.25;;;;;;;5.76;100.00;101709.81;4983134;28;20101;-75
2022/12/06 15:41:33;;;;;;;9.13;3.15;;;;;;;5.76;100.00;101720.94;4996156;28;20443;-75
2022/12/06 15:43:58;;;;;;;4.75;2.95;;;;;;;5.97;100.00;101718.38;4995030;28;20090;-74
2022/12/06 15:46:26;;;;;;;5.72;3.38;;;;;;;5.85;100.00;101719.78;4990919;28;20022;-75
2022/12/06 15:48:52;;;;;;;6.57;4.18;;;;;;;5.89;100.00;101718.00;4989911;28;20049;-74
2022/12/06 15:51:20;;;;;;;6.50;3.15;;;;;;;5.86;100.00;101713.09;4990001;28;20504;-76
2022/12/06 15:53:47;;;;;;;8.85;4.00;;;;;;;5.69;100.00;101726.94;4992017;28;20109;-75
2022/12/06 15:56:15;;;;;;;7.80;3.45;;;;;;;5.70;100.00;101717.50;4991681;28;20378;-76
2022/12/06 15:58:44;;;;;;;9.65;5.20;;;;;;;5.72;100.00;101720.75;5000842;28;20117;-75
2022/12/06 16:01:14;;;;;;;11.93;3.92;;;;;;;5.88;100.00;101724.72;4994675;28;20060;-75
2022/12/06 16:03:40;;;;;;;6.53;4.13;;;;;;;5.79;100.00;101723.88;4995861;28;20063;-76
2022/12/06 16:06:13;;;;;;;6.85;4.10;;;;;;;5.64;100.00;101727.13;4993132;28;20053;-76
2022/12/06 16:08:40;;;;;;;9.10;4.47;;;;;;;6.33;100.00;101717.22;4988369;28;20037;-76
2022/12/06 16:11:06;;;;;;;9.05;4.18;;;;;;;5.81;100.00;101716.03;4995916;28;20041;-75
2022/12/06 16:13:32;;;;;;;11.57;3.63;;;;;;;5.77;100.00;101717.00;4991391;28;20489;-76
2022/12/06 16:15:57;;;;;;;9.35;5.10;;;;;;;5.66;100.00;101722.06;4993235;28;20046;-75
2022/12/06 16:18:22;;;;;;;9.77;4.50;;;;;;;5.67;100.00;101720.91;4992702;28;20084;-74
2022/12/06 16:20:48;;;;;;;14.15;6.05;;;;;;;5.59;100.00;101727.28;4993602;28;20429;-74
2022/12/06 16:26:06;;;;;;;9.00;4.73;;;;;;;5.64;100.00;101718.78;4991162;28;20080;-75
2022/12/06 16:28:31;;;;;;;7.97;4.32;;;;;;;5.78;100.00;101707.53;4994018;28;21671;-74
2022/12/06 16:30:57;;;;;;;11.18;6.25;;;;;;;5.78;100.00;101711.13;4986397;28;20065;-73
2022/12/06 16:33:24;;;;;;;11.95;5.13;;;;;;;5.76;100.00;101705.09;4992270;28;20033;-73
2022/12/06 16:36:23;;;;;;;8.70;5.28;;;;;;;5.60;100.00;101707.50;4997667;28;20105;-73
2022/12/06 16:38:53;;;;;;;10.77;5.13;;;;;;;5.62;100.00;101698.84;4960248;28;20393;-73
2022/12/06 16:41:27;;;;;;;7.57;4.93;;;;;;;5.50;100.00;101694.75;4994531;28;20061;-73
2022/12/06 16:43:53;;;;;;;10.35;5.60;;;;;;;5.68;100.00;101692.00;4992988;28;20108;-74
2022/12/06 16:46:33;;;;;;;9.27;5.38;;;;;;;5.57;100.00;101697.03;4996674;28;20076;-73
2022/12/06 16:49:01;;;;;;;13.15;6.68;;;;;;;5.41;100.00;101696.66;4990358;28;20474;-74
2022/12/06 16:51:32;;;;;;;14.95;6.95;;;;;;;5.45;100.00;101700.44;4993081;28;20036;-74
2022/12/06 16:53:59;;;;;;;9.32;5.53;;;;;;;5.59;100.00;101693.94;4994165;28;20037;-74
2022/12/06 16:56:25;;;;;;;11.07;6.43;;;;;;;5.52;100.00;101699.97;4998453;28;20079;-74
2022/12/06 16:58:51;;;;;;;8.20;5.60;;;;;;;5.50;100.00;101699.47;4989603;28;20456;-74
2022/12/06 17:01:26;;;;;;;11.65;5.78;;;;;;;5.45;100.00;101700.44;4988931;28;20697;-74
2022/12/06 17:03:59;;;;;;;12.35;5.88;;;;;;;5.46;100.00;101690.13;4991655;28;20052;-74
2022/12/06 17:06:27;;;;;;;12.82;5.20;;;;;;;5.46;100.00;101696.53;4997324;28;20026;-75
2022/12/06 17:08:53;;;;;;;12.73;6.15;;;;;;;5.38;100.00;101683.44;4996119;28;20041;-74
2022/12/06 17:14:16;;;;;;;14.65;5.80;;;;;;;5.38;100.00;101680.66;4997657;28;20060;-74
2022/12/06 17:16:42;;;;;;;11.48;6.03;;;;;;;5.36;100.00;101674.63;4996365;28;20058;-74
2022/12/06 17:19:14;;;;;;;9.35;6.07;;;;;;;5.34;100.00;101676.09;4999369;28;20065;-74
2022/12/06 17:21:40;;;;;;;9.07;5.78;;;;;;;5.27;100.00;101671.81;4991735;28;20030;-74
2022/12/06 17:24:06;;;;;;;11.15;6.43;;;;;;;5.29;100.00;101669.53;4992261;28;20702;-73
2022/12/06 17:26:34;;;;;;;13.20;6.60;;;;;;;5.29;100.00;101669.53;5003026;28;20116;-74
2022/12/06 17:29:00;;;;;;;8.95;5.60;;;;;;;5.33;100.00;101668.88;4991857;28;20581;-74
2022/12/06 17:31:30;;;;;;;12.95;6.30;;;;;;;5.33;100.00;101653.03;4996480;28;20022;-73
2022/12/06 17:33:59;;;;;;;10.77;5.50;;;;;;;5.22;100.00;101657.28;5001697;28;20079;-74
2022/12/06 17:36:25;;;;;;;21.83;9.23;;;;;;;5.15;100.00;101643.06;5001732;28;20570;-74
2022/12/06 17:38:52;;;;;;;10.88;6.22;;;;;;;5.52;100.00;101649.16;5000385;28;20021;-74
2022/12/06 17:44:08;;;;;;;15.35;8.02;;;;;;;5.37;100.00;101644.91;4996593;28;20080;-74
2022/12/06 17:46:34;;;;;;;11.10;7.43;;;;;;;5.47;100.00;101644.59;4992862;28;20038;-74
2022/12/06 17:49:00;;;;;;;8.43;6.03;;;;;;;5.38;100.00;101641.81;4994315;28;20037;-74
2022/12/06 17:51:26;;;;;;;12.27;7.43;;;;;;;5.64;100.00;101649.34;4999872;28;20026;-75
2022/12/06 17:53:52;;;;;;;12.27;6.75;;;;;;;5.44;100.00;101648.84;5003449;28;20034;-75
2022/12/06 17:56:27;;;;;;;14.05;7.72;;;;;;;5.36;100.00;101651.59;4998240;28;20040;-75
2022/12/06 17:58:54;;;;;;;14.00;7.47;;;;;;;5.42;100.00;101656.69;5000022;28;20044;-75
2022/12/06 18:01:20;;;;;;;15.77;7.90;;;;;;;5.76;100.00;101657.84;4995641;28;20026;-75
2022/12/06 18:03:46;;;;;;;12.73;7.60;;;;;;;5.40;100.00;101652.59;4993597;28;20022;-75
2022/12/06 18:06:11;;;;;;;15.68;8.73;;;;;;;5.43;100.00;101641.63;4997997;28;20040;-75
2022/12/06 18:08:37;;;;;;;14.30;8.15;;;;;;;5.40;100.00;101652.59;5009583;28;20026;-74
2022/12/06 18:11:04;;;;;;;15.27;8.80;;;;;;;5.36;100.00;101643.28;4993034;28;20041;-75
2022/12/06 18:13:30;;;;;;;18.75;11.32;;;;;;;5.45;100.00;101644.91;4995730;28;20069;-74